Dormazlice, Czech Republic
Current Conditions -  °F | °C
As of 5:03 PM on Friday 24 Oct 2014 (Local Time) from LKLN Reporting Station
Broken Clouds Broken Clouds  
Wind Chill: 48°   Ceiling: 1400
Heat Index: 48°   Visibility: NA
Dew Point: 48°   Wind: 1mph
Humidity: 100%   Direction: 50°NE
Pressure: 30.21"   Gusts: NA
Location:  49.44°N, 12.93°E
Report Text: LKLN 241503Z AUTO 05001KT //// BKN014 09/09 Q1023
Loading
Personal Weather Stations






























Interactive Weather Map
Tropical Storm Tracking
New forecast layout! Learn more

10-Day Weather Forecast

Advertisements
Track Severe Weather on mobile